createdAt,value
2022-10-22T00:09:06.663Z,100.00
2022-10-22T00:19:28.166Z,100.00
2022-10-22T00:29:49.556Z,100.00
2022-10-22T00:40:11.334Z,100.00
2022-10-22T00:50:39.234Z,100.00
2022-10-22T01:01:00.885Z,100.00
2022-10-22T01:11:35.786Z,100.00
2022-10-22T01:22:00.460Z,100.00
2022-10-22T01:32:23.388Z,100.00
2022-10-22T01:42:54.360Z,100.00
2022-10-22T01:53:16.130Z,100.00
2022-10-22T02:04:00.926Z,100.00
2022-10-22T02:14:23.519Z,100.00
2022-10-22T02:24:45.098Z,100.00
2022-10-22T02:35:07.443Z,100.00
2022-10-22T02:45:28.914Z,100.00
2022-10-22T02:55:50.284Z,100.00
2022-10-22T03:06:11.752Z,100.00
2022-10-22T03:16:33.168Z,100.00
2022-10-22T03:26:54.653Z,100.00
2022-10-22T03:37:16.788Z,100.00
2022-10-22T03:47:38.552Z,100.00
2022-10-22T03:58:00.127Z,100.00
2022-10-22T04:08:21.622Z,100.00
2022-10-22T04:18:43.788Z,100.00
2022-10-22T04:29:06.277Z,100.00
2022-10-22T04:39:27.683Z,100.00
2022-10-22T04:49:49.038Z,100.00
2022-10-22T05:00:10.660Z,100.00
2022-10-22T05:10:32.038Z,100.00
2022-10-22T05:20:53.439Z,100.00
2022-10-22T05:31:15.303Z,100.00
2022-10-22T05:41:36.821Z,100.00
2022-10-22T05:51:58.163Z,100.00
2022-10-22T06:02:19.550Z,100.00
2022-10-22T06:12:41.250Z,100.00
2022-10-22T06:23:02.772Z,100.00
2022-10-22T06:33:24.335Z,100.00
2022-10-22T06:43:46.879Z,100.00
2022-10-22T06:54:08.431Z,100.00
2022-10-22T07:04:29.825Z,100.00
2022-10-22T07:14:51.175Z,100.00
2022-10-22T07:25:12.558Z,100.00
2022-10-22T07:35:34.579Z,100.00
2022-10-22T07:45:56.020Z,100.00
2022-10-22T07:56:17.731Z,100.00
2022-10-22T08:06:39.672Z,100.00
2022-10-22T08:17:01.019Z,100.00
2022-10-22T08:27:22.504Z,100.00
2022-10-22T08:37:44.088Z,100.00
2022-10-22T08:48:32.222Z,100.00
2022-10-22T08:58:57.022Z,100.00
2022-10-22T09:09:18.706Z,100.00
2022-10-22T09:19:46.197Z,100.00
2022-10-22T09:30:11.319Z,100.00
2022-10-22T09:40:41.675Z,100.00
2022-10-22T09:51:06.168Z,100.00
2022-10-22T10:01:35.455Z,100.00
2022-10-22T10:12:23.251Z,100.00
2022-10-22T10:23:04.754Z,100.00
2022-10-22T10:33:35.401Z,100.00
2022-10-22T10:44:11.466Z,100.00
2022-10-22T10:54:36.300Z,100.00
2022-10-22T11:05:16.553Z,100.00
2022-10-22T11:15:39.389Z,99.16
2022-10-22T11:26:01.661Z,98.78
2022-10-22T11:36:24.049Z,99.21
2022-10-22T11:46:47.013Z,99.00
2022-10-22T11:57:28.650Z,97.61
2022-10-22T12:07:57.041Z,98.23
2022-10-22T12:18:18.482Z,99.73
2022-10-22T12:28:40.638Z,100.00
2022-10-22T12:39:03.212Z,100.00
2022-10-22T12:49:44.336Z,100.00
2022-10-22T13:00:19.382Z,100.00
2022-10-22T13:10:41.690Z,100.00
2022-10-22T13:21:03.338Z,100.00
2022-10-22T13:31:29.622Z,100.00
2022-10-22T13:41:51.191Z,100.00
2022-10-22T13:52:18.146Z,100.00
2022-10-22T14:02:40.313Z,100.00
2022-10-22T14:13:01.949Z,100.00
2022-10-22T14:23:24.934Z,100.00
2022-10-22T14:33:46.622Z,100.00
2022-10-22T14:44:12.574Z,100.00
2022-10-22T14:54:35.296Z,100.00
2022-10-22T15:15:21.978Z,100.00
2022-10-22T15:25:44.538Z,100.00
2022-10-22T15:36:14.679Z,100.00
2022-10-22T15:46:36.102Z,100.00
2022-10-22T15:56:58.029Z,100.00
2022-10-22T16:07:21.206Z,100.00
2022-10-22T16:17:45.344Z,100.00
2022-10-22T16:28:07.192Z,100.00
2022-10-22T16:38:28.535Z,100.00
2022-10-22T16:48:51.386Z,100.00
2022-10-22T16:59:12.799Z,100.00
2022-10-22T17:09:34.127Z,100.00
2022-10-22T17:19:55.474Z,100.00
2022-10-22T17:30:20.789Z,100.00
2022-10-22T17:40:43.385Z,100.00
2022-10-22T17:51:12.037Z,100.00
2022-10-22T18:01:35.578Z,100.00
2022-10-22T18:11:57.023Z,100.00
2022-10-22T18:22:18.450Z,100.00
2022-10-22T18:32:39.814Z,100.00
2022-10-22T18:43:01.287Z,100.00
2022-10-22T18:53:22.674Z,100.00
2022-10-22T19:03:44.594Z,100.00
2022-10-22T19:14:06.095Z,100.00
2022-10-22T19:24:27.525Z,100.00
2022-10-22T19:34:48.900Z,100.00
2022-10-22T19:45:10.354Z,100.00
2022-10-22T19:55:31.749Z,100.00
2022-10-22T20:05:53.171Z,100.00
2022-10-22T20:16:15.580Z,100.00
2022-10-22T20:26:36.940Z,100.00
2022-10-22T20:36:58.285Z,100.00
2022-10-22T20:47:19.626Z,100.00
2022-10-22T20:57:41.626Z,100.00
2022-10-22T21:08:04.881Z,100.00
2022-10-22T21:18:26.939Z,100.00
2022-10-22T21:28:48.453Z,100.00
2022-10-22T21:39:09.903Z,100.00
2022-10-22T21:49:31.363Z,100.00
2022-10-22T21:59:52.722Z,100.00
2022-10-22T22:10:14.096Z,100.00
2022-10-22T22:20:36.669Z,100.00
2022-10-22T22:30:58.336Z,100.00
2022-10-22T22:41:19.674Z,100.00
2022-10-22T22:51:41.167Z,100.00
2022-10-22T23:02:02.543Z,100.00
2022-10-22T23:12:23.974Z,100.00
2022-10-22T23:22:45.315Z,100.00
2022-10-22T23:33:06.669Z,100.00
2022-10-22T23:43:28.680Z,100.00
2022-10-22T23:53:54.421Z,100.00
